^^
Station Historical Data
Daily Summary for July 8, 2017 Units:  Both    English   Metric
« Previous Day
Next Day »
Daily Weekly Monthly Yearly Custom
  High: Low: Average:
Temperature: 69.3 °F /  20.7 °C 39.4 °F /  4.1 °C 54.3 °F /  12.4 °C
Dew Point: 37.9 °F /  3.3 °C 27.5 °F /  -2.5 °C 33.7 °F /  0.9 °C
Humidity: 76% 30% 48%
Wind Speed: 11.0mph /  17.7km/h - 1.2mph /  1.9km/h
Wind Gust: 15.0mph /  24.1km/h - -
Wind- - SSW
Pressure: 30.44 in /  1030.7 hPa 30.30 in /  1026 hPa -
Precipitation: 0.00 in /  0 mm    
Historical Graphs
 
 
Tabular Data for July 8, 2017
Time Temperature Dew Point Pressure Wind Wind Speed Wind Gust Humidity Rainfall Rate (Hourly) solar Conditions
00:00 45.5 °F /  7.5 °C 28.4 °F /  -2 °C 30.39in /  1029hPa Calm     51% 0.00in /  0mm 0.0 W/m2
00:08 45.1 °F /  7.3 °C 28.0 °F /  -2.2 °C 30.39in /  1029hPa Calm     51% 0.00in /  0mm 0.0 W/m2
00:15 45.0 °F /  7.2 °C 27.9 °F /  -2.3 °C 30.39in /  1029hPa Calm     51% 0.00in /  0mm 0.0 W/m2
00:20 45.0 °F /  7.2 °C 28.4 °F /  -2 °C 30.39in /  1029hPa Calm     52% 0.00in /  0mm 0.0 W/m2
00:27 44.8 °F /  7.1 °C 28.2 °F /  -2.1 °C 30.39in /  1029hPa Calm     52% 0.00in /  0mm 0.0 W/m2
00:33 44.4 °F /  6.9 °C 27.9 °F /  -2.3 °C 30.39in /  1029hPa Calm     52% 0.00in /  0mm 0.0 W/m2
00:39 44.2 °F /  6.8 °C 27.7 °F /  -2.4 °C 30.39in /  1029hPa Calm     52% 0.00in /  0mm 0.0 W/m2
00:45 44.1 °F /  6.7 °C 27.5 °F /  -2.5 °C 30.39in /  1029hPa Calm     52% 0.00in /  0mm 0.0 W/m2
00:51 43.9 °F /  6.6 °C 27.9 °F /  -2.3 °C 30.39in /  1029hPa Calm     53% 0.00in /  0mm 0.0 W/m2
00:57 43.9 °F /  6.6 °C 27.9 °F /  -2.3 °C 30.39in /  1029hPa Calm     53% 0.00in /  0mm 0.0 W/m2
01:03 44.1 °F /  6.7 °C 28.0 °F /  -2.2 °C 30.39in /  1029hPa Calm     53% 0.00in /  0mm 0.0 W/m2
01:09 44.2 °F /  6.8 °C 27.7 °F /  -2.4 °C 30.39in /  1029hPa Calm     52% 0.00in /  0mm 0.0 W/m2
01:16 44.2 °F /  6.8 °C 27.7 °F /  -2.4 °C 30.39in /  1029hPa Calm     52% 0.00in /  0mm 0.0 W/m2
01:22 44.2 °F /  6.8 °C 27.7 °F /  -2.4 °C 30.39in /  1029hPa Calm     52% 0.00in /  0mm 0.0 W/m2
01:28 44.4 °F /  6.9 °C 27.9 °F /  -2.3 °C 30.39in /  1029hPa Calm     52% 0.00in /  0mm 0.0 W/m2
01:34 44.4 °F /  6.9 °C 27.9 °F /  -2.3 °C 30.40in /  1029.3hPa Calm     52% 0.00in /  0mm 0.0 W/m2
01:40 44.4 °F /  6.9 °C 27.9 °F /  -2.3 °C 30.40in /  1029.3hPa Calm   1.0mph /  1.6km/h 52% 0.00in /  0mm 0.0 W/m2
01:46 44.4 °F /  6.9 °C 27.9 °F /  -2.3 °C 30.40in /  1029.3hPa Calm   1.0mph /  1.6km/h 52% 0.00in /  0mm 0.0 W/m2
01:52 44.8 °F /  7.1 °C 28.2 °F /  -2.1 °C 30.40in /  1029.3hPa Calm   1.0mph /  1.6km/h 52% 0.00in /  0mm 0.0 W/m2
01:58 45.1 °F /  7.3 °C 28.0 °F /  -2.2 °C 30.40in /  1029.3hPa Calm     51% 0.00in /  0mm 0.0 W/m2
02:04 45.3 °F /  7.4 °C 28.2 °F /  -2.1 °C 30.40in /  1029.3hPa Calm     51% 0.00in /  0mm 0.0 W/m2
02:10 45.7 °F /  7.6 °C 28.6 °F /  -1.9 °C 30.39in /  1029hPa Calm     51% 0.00in /  0mm 0.0 W/m2
02:16 45.9 °F /  7.7 °C 28.8 °F /  -1.8 °C 30.40in /  1029.3hPa Calm   3.0mph /  4.8km/h 51% 0.00in /  0mm 0.0 W/m2
02:22 46.0 °F /  7.8 °C 28.9 °F /  -1.7 °C 30.39in /  1029hPa Calm   4.0mph /  6.4km/h 51% 0.00in /  0mm 0.0 W/m2
02:28 46.2 °F /  7.9 °C 29.1 °F /  -1.6 °C 30.39in /  1029hPa Calm   2.0mph /  3.2km/h 51% 0.00in /  0mm 0.0 W/m2
02:34 46.2 °F /  7.9 °C 29.1 °F /  -1.6 °C 30.39in /  1029hPa Calm   2.0mph /  3.2km/h 51% 0.00in /  0mm 0.0 W/m2
02:40 46.4 °F /  8 °C 29.3 °F /  -1.5 °C 30.39in /  1029hPa Calm   1.0mph /  1.6km/h 51% 0.00in /  0mm 0.0 W/m2
02:47 46.2 °F /  7.9 °C 29.1 °F /  -1.6 °C 30.38in /  1028.7hPa Calm   1.0mph /  1.6km/h 51% 0.00in /  0mm 0.0 W/m2
02:53 46.2 °F /  7.9 °C 29.5 °F /  -1.4 °C 30.38in /  1028.7hPa Calm   1.0mph /  1.6km/h 52% 0.00in /  0mm 0.0 W/m2
02:59 46.2 °F /  7.9 °C 29.5 °F /  -1.4 °C 30.38in /  1028.7hPa Calm   1.0mph /  1.6km/h 52% 0.00in /  0mm 0.0 W/m2
03:05 46.0 °F /  7.8 °C 29.8 °F /  -1.2 °C 30.38in /  1028.7hPa Calm     53% 0.00in /  0mm 0.0 W/m2
03:11 45.9 °F /  7.7 °C 30.2 °F /  -1 °C 30.38in /  1028.7hPa Calm     54% 0.00in /  0mm 0.0 W/m2
03:17 45.9 °F /  7.7 °C 30.6 °F /  -0.8 °C 30.38in /  1028.7hPa Calm     55% 0.00in /  0mm 0.0 W/m2
03:23 45.9 °F /  7.7 °C 31.1 °F /  -0.5 °C 30.37in /  1028.3hPa Calm     56% 0.00in /  0mm 0.0 W/m2
03:30 45.7 °F /  7.6 °C 31.3 °F /  -0.4 °C 30.38in /  1028.7hPa Calm   1.0mph /  1.6km/h 57% 0.00in /  0mm 0.0 W/m2
03:36 45.5 °F /  7.5 °C 31.1 °F /  -0.5 °C 30.38in /  1028.7hPa Calm     57% 0.00in /  0mm 0.0 W/m2
03:42 45.3 °F /  7.4 °C 31.5 °F /  -0.3 °C 30.38in /  1028.7hPa Calm     58% 0.00in /  0mm 0.0 W/m2
03:48 45.1 °F /  7.3 °C 31.3 °F /  -0.4 °C 30.38in /  1028.7hPa Calm     58% 0.00in /  0mm 0.0 W/m2
03:54 45.0 °F /  7.2 °C 31.1 °F /  -0.5 °C 30.38in /  1028.7hPa Calm     58% 0.00in /  0mm 0.0 W/m2
04:00 44.6 °F /  7 °C 31.1 °F /  -0.5 °C 30.38in /  1028.7hPa Calm     59% 0.00in /  0mm 0.0 W/m2
04:06 44.2 °F /  6.8 °C 30.7 °F /  -0.7 °C 30.38in /  1028.7hPa Calm     59% 0.00in /  0mm 0.0 W/m2
04:12 43.9 °F /  6.6 °C 30.9 °F /  -0.6 °C 30.38in /  1028.7hPa Calm     60% 0.00in /  0mm 0.0 W/m2
04:18 43.3 °F /  6.3 °C 30.4 °F /  -0.9 °C 30.38in /  1028.7hPa Calm     60% 0.00in /  0mm 0.0 W/m2
04:25 43.0 °F /  6.1 °C 30.4 °F /  -0.9 °C 30.38in /  1028.7hPa Calm     61% 0.00in /  0mm 0.0 W/m2
04:31 42.6 °F /  5.9 °C 30.9 °F /  -0.6 °C 30.38in /  1028.7hPa Calm     63% 0.00in /  0mm 0.0 W/m2
04:37 42.3 °F /  5.7 °C 30.9 °F /  -0.6 °C 30.38in /  1028.7hPa Calm     64% 0.00in /  0mm 0.0 W/m2
04:43 42.1 °F /  5.6 °C 31.1 °F /  -0.5 °C 30.38in /  1028.7hPa Calm     65% 0.00in /  0mm 0.0 W/m2
04:49 41.7 °F /  5.4 °C 31.6 °F /  -0.2 °C 30.37in /  1028.3hPa Calm     67% 0.00in /  0mm 0.0 W/m2
04:55 41.7 °F /  5.4 °C 32.0 °F /  0 °C 30.38in /  1028.7hPa Calm     68% 0.00in /  0mm 0.0 W/m2
05:01 41.5 °F /  5.3 °C 31.8 °F /  -0.1 °C 30.37in /  1028.3hPa Calm     68% 0.00in /  0mm 0.0 W/m2
05:08 41.4 °F /  5.2 °C 31.6 °F /  -0.2 °C 30.38in /  1028.7hPa Calm     68% 0.00in /  0mm 0.0 W/m2
05:14 41.4 °F /  5.2 °C 32.0 °F /  0 °C 30.38in /  1028.7hPa Calm     69% 0.00in /  0mm 0.0 W/m2
05:20 41.4 °F /  5.2 °C 32.4 °F /  0.2 °C 30.38in /  1028.7hPa Calm     70% 0.00in /  0mm 0.0 W/m2
05:26 41.2 °F /  5.1 °C 32.2 °F /  0.1 °C 30.38in /  1028.7hPa Calm     70% 0.00in /  0mm 0.0 W/m2
05:32 41.2 °F /  5.1 °C 32.5 °F /  0.3 °C 30.38in /  1028.7hPa Calm     71% 0.00in /  0mm 0.0 W/m2
05:38 40.8 °F /  4.9 °C 31.8 °F /  -0.1 °C 30.38in /  1028.7hPa Calm     70% 0.00in /  0mm 0.0 W/m2
05:44 40.5 °F /  4.7 °C 31.1 °F /  -0.5 °C 30.38in /  1028.7hPa Calm     69% 0.00in /  0mm 0.0 W/m2
05:51 40.3 °F /  4.6 °C 31.3 °F /  -0.4 °C 30.38in /  1028.7hPa Calm     70% 0.00in /  0mm 0.0 W/m2
05:57 40.1 °F /  4.5 °C 31.5 °F /  -0.3 °C 30.39in /  1029hPa Calm     71% 0.00in /  0mm 0.0 W/m2
06:03 39.9 °F /  4.4 °C 31.6 °F /  -0.2 °C 30.39in /  1029hPa Calm     72% 0.00in /  0mm 0.0 W/m2
06:09 39.7 °F /  4.3 °C 31.5 °F /  -0.3 °C 30.39in /  1029hPa Calm     72% 0.00in /  0mm 0.0 W/m2
06:15 39.6 °F /  4.2 °C 31.6 °F /  -0.2 °C 30.39in /  1029hPa Calm     73% 0.00in /  0mm 0.0 W/m2
06:22 39.6 °F /  4.2 °C 31.6 °F /  -0.2 °C 30.39in /  1029hPa Calm     73% 0.00in /  0mm 0.0 W/m2
06:28 39.4 °F /  4.1 °C 31.1 °F /  -0.5 °C 30.40in /  1029.3hPa Calm     72% 0.00in /  0mm 0.0 W/m2
06:34 39.4 °F /  4.1 °C 31.5 °F /  -0.3 °C 30.40in /  1029.3hPa Calm     73% 0.00in /  0mm 0.0 W/m2
06:40 39.4 °F /  4.1 °C 31.5 °F /  -0.3 °C 30.40in /  1029.3hPa Calm     73% 0.00in /  0mm 5.0 W/m2
06:46 39.4 °F /  4.1 °C 32.2 °F /  0.1 °C 30.40in /  1029.3hPa Calm     75% 0.00in /  0mm 9.0 W/m2
06:52 39.4 °F /  4.1 °C 32.2 °F /  0.1 °C 30.40in /  1029.3hPa Calm     75% 0.00in /  0mm 11.0 W/m2
06:58 39.6 °F /  4.2 °C 32.5 °F /  0.3 °C 30.40in /  1029.3hPa Calm     76% 0.00in /  0mm 12.0 W/m2
07:04 39.7 °F /  4.3 °C 32.7 °F /  0.4 °C 30.40in /  1029.3hPa Calm     76% 0.00in /  0mm 12.0 W/m2
07:11 39.9 °F /  4.4 °C 32.9 °F /  0.5 °C 30.41in /  1029.7hPa Calm   1.0mph /  1.6km/h 76% 0.00in /  0mm 14.0 W/m2
07:17 40.3 °F /  4.6 °C 33.3 °F /  0.7 °C 30.41in /  1029.7hPa Calm     76% 0.00in /  0mm 16.0 W/m2
07:23 40.6 °F /  4.8 °C 33.6 °F /  0.9 °C 30.41in /  1029.7hPa Calm     76% 0.00in /  0mm 18.0 W/m2
07:29 41.0 °F /  5 °C 33.6 °F /  0.9 °C 30.41in /  1029.7hPa Calm     75% 0.00in /  0mm 19.0 W/m2
07:35 41.5 °F /  5.3 °C 34.2 °F /  1.2 °C 30.42in /  1030hPa Calm     75% 0.00in /  0mm 19.0 W/m2
07:41 42.1 °F /  5.6 °C 34.3 °F /  1.3 °C 30.42in /  1030hPa Calm     74% 0.00in /  0mm 21.0 W/m2
07:47 42.6 °F /  5.9 °C 34.9 °F /  1.6 °C 30.43in /  1030.4hPa Calm     74% 0.00in /  0mm 23.0 W/m2
07:54 43.3 °F /  6.3 °C 35.6 °F /  2 °C 30.43in /  1030.4hPa Calm     74% 0.00in /  0mm 23.0 W/m2
08:00 45.0 °F /  7.2 °C 36.5 °F /  2.5 °C 30.43in /  1030.4hPa Calm     72% 0.00in /  0mm 26.0 W/m2
08:06 46.9 °F /  8.3 °C 36.9 °F /  2.7 °C 30.43in /  1030.4hPa Calm     68% 0.00in /  0mm 265.0 W/m2
08:12 49.6 °F /  9.8 °C 37.2 °F /  2.9 °C 30.43in /  1030.4hPa Calm     62% 0.00in /  0mm 299.0 W/m2
08:18 52.3 °F /  11.3 °C 37.6 °F /  3.1 °C 30.43in /  1030.4hPa Calm     57% 0.00in /  0mm 318.0 W/m2
08:24 54.0 °F /  12.2 °C 37.2 °F /  2.9 °C 30.43in /  1030.4hPa Calm     53% 0.00in /  0mm 339.0 W/m2
08:30 55.0 °F /  12.8 °C 37.2 °F /  2.9 °C 30.43in /  1030.4hPa Calm     51% 0.00in /  0mm 360.0 W/m2
08:37 56.5 °F /  13.6 °C 37.6 °F /  3.1 °C 30.43in /  1030.4hPa Calm   1.0mph /  1.6km/h 49% 0.00in /  0mm 378.0 W/m2
08:43 57.7 °F /  14.3 °C 37.6 °F /  3.1 °C 30.43in /  1030.4hPa Calm     47% 0.00in /  0mm 399.0 W/m2
08:49 58.6 °F /  14.8 °C 37.9 °F /  3.3 °C 30.43in /  1030.4hPa Calm     46% 0.00in /  0mm 417.0 W/m2
08:55 59.4 °F /  15.2 °C 37.4 °F /  3 °C 30.43in /  1030.4hPa NW 0.9mph /  1.4km/h 4.0mph /  6.4km/h 44% 0.00in /  0mm 432.0 W/m2
09:01 60.3 °F /  15.7 °C 37.8 °F /  3.2 °C 30.43in /  1030.4hPa NNW 0.9mph /  1.4km/h 5.0mph /  8km/h 43% 0.00in /  0mm 450.0 W/m2
09:07 61.0 °F /  16.1 °C 37.8 °F /  3.2 °C 30.43in /  1030.4hPa NNW 0.9mph /  1.4km/h 4.0mph /  6.4km/h 42% 0.00in /  0mm 466.0 W/m2
09:13 61.2 °F /  16.2 °C 37.2 °F /  2.9 °C 30.43in /  1030.4hPa NNW 4.0mph /  6.4km/h 7.0mph /  11.3km/h 41% 0.00in /  0mm 483.0 W/m2
09:20 61.5 °F /  16.4 °C 37.6 °F /  3.1 °C 30.43in /  1030.4hPa Calm   4.0mph /  6.4km/h 41% 0.00in /  0mm 499.0 W/m2
09:26 61.9 °F /  16.6 °C 37.9 °F /  3.3 °C 30.44in /  1030.7hPa Calm   1.0mph /  1.6km/h 41% 0.00in /  0mm 512.0 W/m2
09:32 62.1 °F /  16.7 °C 37.4 °F /  3 °C 30.44in /  1030.7hPa Calm   4.0mph /  6.4km/h 40% 0.00in /  0mm 527.0 W/m2
09:38 62.8 °F /  17.1 °C 36.9 °F /  2.7 °C 30.44in /  1030.7hPa NNW 4.0mph /  6.4km/h 5.0mph /  8km/h 38% 0.00in /  0mm 543.0 W/m2
09:44 63.3 °F /  17.4 °C 36.7 °F /  2.6 °C 30.44in /  1030.7hPa WNW 4.0mph /  6.4km/h 9.0mph /  14.5km/h 37% 0.00in /  0mm 555.0 W/m2
09:50 63.3 °F /  17.4 °C 36.7 °F /  2.6 °C 30.44in /  1030.7hPa North 4.9mph /  7.9km/h 8.0mph /  12.9km/h 37% 0.00in /  0mm 566.0 W/m2
09:56 63.3 °F /  17.4 °C 37.2 °F /  2.9 °C 30.44in /  1030.7hPa Calm   2.0mph /  3.2km/h 38% 0.00in /  0mm 577.0 W/m2
10:03 63.9 °F /  17.7 °C 37.0 °F /  2.8 °C 30.44in /  1030.7hPa Calm   2.0mph /  3.2km/h 37% 0.00in /  0mm 591.0 W/m2
10:09 64.0 °F /  17.8 °C 36.5 °F /  2.5 °C 30.43in /  1030.4hPa NNE 6.9mph /  11.1km/h 7.0mph /  11.3km/h 36% 0.00in /  0mm 605.0 W/m2
10:15 64.2 °F /  17.9 °C 36.0 °F /  2.2 °C 30.42in /  1030hPa NNW 0.9mph /  1.4km/h 8.0mph /  12.9km/h 35% 0.00in /  0mm 613.0 W/m2
10:21 64.2 °F /  17.9 °C 36.0 °F /  2.2 °C 30.41in /  1029.7hPa North 6.0mph /  9.7km/h 9.0mph /  14.5km/h 35% 0.00in /  0mm 624.0 W/m2
10:27 64.6 °F /  18.1 °C 35.6 °F /  2 °C 30.41in /  1029.7hPa NNW 6.0mph /  9.7km/h 12.0mph /  19.3km/h 34% 0.00in /  0mm 635.0 W/m2
10:33 64.6 °F /  18.1 °C 35.6 °F /  2 °C 30.40in /  1029.3hPa NNW 6.0mph /  9.7km/h 13.0mph /  20.9km/h 34% 0.00in /  0mm 643.0 W/m2
10:39 64.2 °F /  17.9 °C 34.5 °F /  1.4 °C 30.40in /  1029.3hPa NNW 2.0mph /  3.2km/h 13.0mph /  20.9km/h 33% 0.00in /  0mm 649.0 W/m2
10:45 64.6 °F /  18.1 °C 34.9 °F /  1.6 °C 30.40in /  1029.3hPa North 4.9mph /  7.9km/h 11.0mph /  17.7km/h 33% 0.00in /  0mm 657.0 W/m2
10:52 64.6 °F /  18.1 °C 34.9 °F /  1.6 °C 30.40in /  1029.3hPa NNW 4.9mph /  7.9km/h 11.0mph /  17.7km/h 33% 0.00in /  0mm 663.0 W/m2
10:58 64.8 °F /  18.2 °C 35.1 °F /  1.7 °C 30.40in /  1029.3hPa NW 2.0mph /  3.2km/h 14.0mph /  22.5km/h 33% 0.00in /  0mm 671.0 W/m2
11:04 64.9 °F /  18.3 °C 35.1 °F /  1.7 °C 30.40in /  1029.3hPa NNE 8.1mph /  13km/h 12.0mph /  19.3km/h 33% 0.00in /  0mm 673.0 W/m2
11:10 65.5 °F /  18.6 °C 35.6 °F /  2 °C 30.40in /  1029.3hPa NNW 2.9mph /  4.7km/h 10.0mph /  16.1km/h 33% 0.00in /  0mm 680.0 W/m2
11:16 65.8 °F /  18.8 °C 36.0 °F /  2.2 °C 30.42in /  1030hPa NNW 4.9mph /  7.9km/h 11.0mph /  17.7km/h 33% 0.00in /  0mm 677.0 W/m2
11:22 66.4 °F /  19.1 °C 37.2 °F /  2.9 °C 30.42in /  1030hPa NNE 0.9mph /  1.4km/h 1.0mph /  1.6km/h 34% 0.00in /  0mm 679.0 W/m2
11:29 66.7 °F /  19.3 °C 36.7 °F /  2.6 °C 30.41in /  1029.7hPa North 8.9mph /  14.3km/h 10.0mph /  16.1km/h 33% 0.00in /  0mm 680.0 W/m2
11:34 66.6 °F /  19.2 °C 35.8 °F /  2.1 °C 30.40in /  1029.3hPa SW 0.9mph /  1.4km/h 5.0mph /  8km/h 32% 0.00in /  0mm 684.0 W/m2
11:41 66.7 °F /  19.3 °C 36.7 °F /  2.6 °C 30.39in /  1029hPa NW 4.0mph /  6.4km/h 4.0mph /  6.4km/h 33% 0.00in /  0mm 680.0 W/m2
11:47 67.3 °F /  19.6 °C 35.6 °F /  2 °C 30.39in /  1029hPa NNW 4.0mph /  6.4km/h 12.0mph /  19.3km/h 31% 0.00in /  0mm 693.0 W/m2
11:53 66.9 °F /  19.4 °C 35.2 °F /  1.8 °C 30.38in /  1028.7hPa North 4.0mph /  6.4km/h 9.0mph /  14.5km/h 31% 0.00in /  0mm 691.0 W/m2
11:59 66.7 °F /  19.3 °C 35.1 °F /  1.7 °C 30.38in /  1028.7hPa NNE 10.1mph /  16.3km/h 13.0mph /  20.9km/h 31% 0.00in /  0mm 691.0 W/m2
12:05 66.7 °F /  19.3 °C 36.0 °F /  2.2 °C 30.37in /  1028.3hPa NNW 6.0mph /  9.7km/h 10.0mph /  16.1km/h 32% 0.00in /  0mm 689.0 W/m2
12:11 66.9 °F /  19.4 °C 36.1 °F /  2.3 °C 30.36in /  1028hPa NNE 11.0mph /  17.7km/h 11.0mph /  17.7km/h 32% 0.00in /  0mm 682.0 W/m2
12:17 66.9 °F /  19.4 °C 35.2 °F /  1.8 °C 30.36in /  1028hPa North 6.9mph /  11.1km/h 15.0mph /  24.1km/h 31% 0.00in /  0mm 691.0 W/m2
12:24 66.9 °F /  19.4 °C 36.1 °F /  2.3 °C 30.36in /  1028hPa North 6.0mph /  9.7km/h 7.0mph /  11.3km/h 32% 0.00in /  0mm 682.0 W/m2
12:30 67.3 °F /  19.6 °C 36.5 °F /  2.5 °C 30.36in /  1028hPa Calm   11.0mph /  17.7km/h 32% 0.00in /  0mm 677.0 W/m2
12:36 67.6 °F /  19.8 °C 36.7 °F /  2.6 °C 30.35in /  1027.7hPa NNW 4.0mph /  6.4km/h 9.0mph /  14.5km/h 32% 0.00in /  0mm 675.0 W/m2
12:42 67.8 °F /  19.9 °C 36.9 °F /  2.7 °C 30.34in /  1027.3hPa North 2.0mph /  3.2km/h 8.0mph /  12.9km/h 32% 0.00in /  0mm 670.0 W/m2
12:48 68.0 °F /  20 °C 36.3 °F /  2.4 °C 30.34in /  1027.3hPa North 4.0mph /  6.4km/h 8.0mph /  12.9km/h 31% 0.00in /  0mm 657.0 W/m2
12:54 68.2 °F /  20.1 °C 36.3 °F /  2.4 °C 30.34in /  1027.3hPa North 4.0mph /  6.4km/h 11.0mph /  17.7km/h 31% 0.00in /  0mm 654.0 W/m2
13:00 68.4 °F /  20.2 °C 36.5 °F /  2.5 °C 30.34in /  1027.3hPa WNW 0.9mph /  1.4km/h 11.0mph /  17.7km/h 31% 0.00in /  0mm 647.0 W/m2
13:06 68.5 °F /  20.3 °C 36.7 °F /  2.6 °C 30.33in /  1027hPa North 0.9mph /  1.4km/h 10.0mph /  16.1km/h 31% 0.00in /  0mm 642.0 W/m2
13:12 68.5 °F /  20.3 °C 36.7 °F /  2.6 °C 30.33in /  1027hPa NNE 0.9mph /  1.4km/h 8.0mph /  12.9km/h 31% 0.00in /  0mm 628.0 W/m2
13:19 68.5 °F /  20.3 °C 36.7 °F /  2.6 °C 30.33in /  1027hPa NNW 4.9mph /  7.9km/h 7.0mph /  11.3km/h 31% 0.00in /  0mm 624.0 W/m2
13:25 69.1 °F /  20.6 °C 37.2 °F /  2.9 °C 30.33in /  1027hPa NW 4.0mph /  6.4km/h 6.0mph /  9.7km/h 31% 0.00in /  0mm 615.0 W/m2
13:31 69.1 °F /  20.6 °C 36.3 °F /  2.4 °C 30.32in /  1026.6hPa North 2.9mph /  4.7km/h 9.0mph /  14.5km/h 30% 0.00in /  0mm 603.0 W/m2
13:37 68.9 °F /  20.5 °C 36.1 °F /  2.3 °C 30.32in /  1026.6hPa NNE 2.9mph /  4.7km/h 12.0mph /  19.3km/h 30% 0.00in /  0mm 592.0 W/m2
13:43 68.5 °F /  20.3 °C 36.7 °F /  2.6 °C 30.32in /  1026.6hPa NNW 4.0mph /  6.4km/h 11.0mph /  17.7km/h 31% 0.00in /  0mm 585.0 W/m2
13:49 68.4 °F /  20.2 °C 36.5 °F /  2.5 °C 30.32in /  1026.6hPa Calm   8.0mph /  12.9km/h 31% 0.00in /  0mm 573.0 W/m2
13:55 68.5 °F /  20.3 °C 36.7 °F /  2.6 °C 30.32in /  1026.6hPa NW 4.0mph /  6.4km/h 11.0mph /  17.7km/h 31% 0.00in /  0mm 555.0 W/m2
14:01 68.5 °F /  20.3 °C 36.7 °F /  2.6 °C 30.32in /  1026.6hPa WNW 2.9mph /  4.7km/h 13.0mph /  20.9km/h 31% 0.00in /  0mm 543.0 W/m2
14:08 68.5 °F /  20.3 °C 36.7 °F /  2.6 °C 30.32in /  1026.6hPa NW 0.9mph /  1.4km/h 10.0mph /  16.1km/h 31% 0.00in /  0mm 531.0 W/m2
14:14 68.5 °F /  20.3 °C 36.7 °F /  2.6 °C 30.31in /  1026.3hPa Calm   1.0mph /  1.6km/h 31% 0.00in /  0mm 519.0 W/m2
14:20 68.9 °F /  20.5 °C 37.0 °F /  2.8 °C 30.31in /  1026.3hPa NW 2.0mph /  3.2km/h 8.0mph /  12.9km/h 31% 0.00in /  0mm 504.0 W/m2
14:26 69.1 °F /  20.6 °C 37.2 °F /  2.9 °C 30.31in /  1026.3hPa NNW 2.0mph /  3.2km/h 7.0mph /  11.3km/h 31% 0.00in /  0mm 489.0 W/m2
14:32 69.3 °F /  20.7 °C 36.5 °F /  2.5 °C 30.31in /  1026.3hPa West 2.0mph /  3.2km/h 5.0mph /  8km/h 30% 0.00in /  0mm 475.0 W/m2
14:38 69.1 °F /  20.6 °C 36.3 °F /  2.4 °C 30.31in /  1026.3hPa NNW 4.0mph /  6.4km/h 7.0mph /  11.3km/h 30% 0.00in /  0mm 459.0 W/m2
14:45 68.7 °F /  20.4 °C 36.0 °F /  2.2 °C 30.31in /  1026.3hPa NNW 2.9mph /  4.7km/h 11.0mph /  17.7km/h 30% 0.00in /  0mm 441.0 W/m2
14:51 68.5 °F /  20.3 °C 36.7 °F /  2.6 °C 30.31in /  1026.3hPa North 4.9mph /  7.9km/h 9.0mph /  14.5km/h 31% 0.00in /  0mm 425.0 W/m2
14:57 68.4 °F /  20.2 °C 36.5 °F /  2.5 °C 30.31in /  1026.3hPa Calm   8.0mph /  12.9km/h 31% 0.00in /  0mm 408.0 W/m2
15:03 68.5 °F /  20.3 °C 36.7 °F /  2.6 °C 30.31in /  1026.3hPa NNE 8.1mph /  13km/h 9.0mph /  14.5km/h 31% 0.00in /  0mm 385.0 W/m2
15:09 68.4 °F /  20.2 °C 36.5 °F /  2.5 °C 30.31in /  1026.3hPa Calm   11.0mph /  17.7km/h 31% 0.00in /  0mm 371.0 W/m2
15:15 68.2 °F /  20.1 °C 36.3 °F /  2.4 °C 30.31in /  1026.3hPa NW 0.9mph /  1.4km/h 3.0mph /  4.8km/h 31% 0.00in /  0mm 353.0 W/m2
15:21 68.2 °F /  20.1 °C 36.3 °F /  2.4 °C 30.30in /  1026hPa North 6.9mph /  11.1km/h 8.0mph /  12.9km/h 31% 0.00in /  0mm 338.0 W/m2
15:27 68.0 °F /  20 °C 37.0 °F /  2.8 °C 30.30in /  1026hPa Calm   5.0mph /  8km/h 32% 0.00in /  0mm 185.0 W/m2
15:33 68.0 °F /  20 °C 37.0 °F /  2.8 °C 30.30in /  1026hPa NNW 8.1mph /  13km/h 8.1mph /  13km/h 32% 0.00in /  0mm 42.0 W/m2
15:40 67.6 °F /  19.8 °C 36.7 °F /  2.6 °C 30.30in /  1026hPa NW 6.0mph /  9.7km/h 9.0mph /  14.5km/h 32% 0.00in /  0mm 39.0 W/m2
15:46 67.3 °F /  19.6 °C 36.5 °F /  2.5 °C 30.30in /  1026hPa North 4.9mph /  7.9km/h 6.0mph /  9.7km/h 32% 0.00in /  0mm 37.0 W/m2
15:52 66.9 °F /  19.4 °C 35.2 °F /  1.8 °C 30.30in /  1026hPa NW 2.0mph /  3.2km/h 9.0mph /  14.5km/h 31% 0.00in /  0mm 35.0 W/m2
15:58 66.7 °F /  19.3 °C 35.1 °F /  1.7 °C 30.30in /  1026hPa North 2.0mph /  3.2km/h 8.0mph /  12.9km/h 31% 0.00in /  0mm 33.0 W/m2
16:04 66.6 °F /  19.2 °C 35.1 °F /  1.7 °C 30.30in /  1026hPa NNE 6.0mph /  9.7km/h 10.0mph /  16.1km/h 31% 0.00in /  0mm 30.0 W/m2
16:10 66.4 °F /  19.1 °C 34.9 °F /  1.6 °C 30.31in /  1026.3hPa NNW 4.0mph /  6.4km/h 8.0mph /  12.9km/h 31% 0.00in /  0mm 26.0 W/m2
16:16 66.0 °F /  18.9 °C 34.5 °F /  1.4 °C 30.31in /  1026.3hPa Calm   6.0mph /  9.7km/h 31% 0.00in /  0mm 23.0 W/m2
16:22 65.7 °F /  18.7 °C 34.2 °F /  1.2 °C 30.31in /  1026.3hPa NNE 2.9mph /  4.7km/h 8.0mph /  12.9km/h 31% 0.00in /  0mm 19.0 W/m2
16:28 65.5 °F /  18.6 °C 34.9 °F /  1.6 °C 30.31in /  1026.3hPa WNW 0.9mph /  1.4km/h 4.0mph /  6.4km/h 32% 0.00in /  0mm 19.0 W/m2
16:35 65.1 °F /  18.4 °C 35.2 °F /  1.8 °C 30.31in /  1026.3hPa Calm   7.0mph /  11.3km/h 33% 0.00in /  0mm 18.0 W/m2
16:41 64.9 °F /  18.3 °C 35.1 °F /  1.7 °C 30.31in /  1026.3hPa NW 0.9mph /  1.4km/h 2.0mph /  3.2km/h 33% 0.00in /  0mm 16.0 W/m2
16:47 64.8 °F /  18.2 °C 35.1 °F /  1.7 °C 30.31in /  1026.3hPa NNW 2.0mph /  3.2km/h 8.0mph /  12.9km/h 33% 0.00in /  0mm 16.0 W/m2
16:53 64.8 °F /  18.2 °C 35.1 °F /  1.7 °C 30.31in /  1026.3hPa North 2.0mph /  3.2km/h 6.0mph /  9.7km/h 33% 0.00in /  0mm 14.0 W/m2
16:59 64.6 °F /  18.1 °C 34.9 °F /  1.6 °C 30.31in /  1026.3hPa North 2.9mph /  4.7km/h 7.0mph /  11.3km/h 33% 0.00in /  0mm 12.0 W/m2
17:05 64.6 °F /  18.1 °C 34.9 °F /  1.6 °C 30.31in /  1026.3hPa North 2.9mph /  4.7km/h 4.0mph /  6.4km/h 33% 0.00in /  0mm 11.0 W/m2
17:11 64.2 °F /  17.9 °C 34.5 °F /  1.4 °C 30.31in /  1026.3hPa NNE 2.0mph /  3.2km/h 2.0mph /  3.2km/h 33% 0.00in /  0mm 7.0 W/m2
17:18 63.9 °F /  17.7 °C 34.9 °F /  1.6 °C 30.31in /  1026.3hPa Calm   1.0mph /  1.6km/h 34% 0.00in /  0mm 5.0 W/m2
17:24 63.3 °F /  17.4 °C 35.2 °F /  1.8 °C 30.32in /  1026.6hPa Calm   1.0mph /  1.6km/h 35% 0.00in /  0mm 0.0 W/m2
17:30 63.0 °F /  17.2 °C 34.9 °F /  1.6 °C 30.32in /  1026.6hPa Calm   2.0mph /  3.2km/h 35% 0.00in /  0mm 0.0 W/m2
17:36 62.4 °F /  16.9 °C 35.1 °F /  1.7 °C 30.32in /  1026.6hPa Calm     36% 0.00in /  0mm 0.0 W/m2
17:42 61.7 °F /  16.5 °C 35.2 °F /  1.8 °C 30.32in /  1026.6hPa Calm     37% 0.00in /  0mm 0.0 W/m2
17:48 61.0 °F /  16.1 °C 35.2 °F /  1.8 °C 30.32in /  1026.6hPa Calm     38% 0.00in /  0mm 0.0 W/m2
17:54 60.3 °F /  15.7 °C 34.5 °F /  1.4 °C 30.32in /  1026.6hPa Calm     38% 0.00in /  0mm 0.0 W/m2
18:01 59.5 °F /  15.3 °C 34.5 °F /  1.4 °C 30.32in /  1026.6hPa Calm     39% 0.00in /  0mm 0.0 W/m2
18:07 58.8 °F /  14.9 °C 34.5 °F /  1.4 °C 30.32in /  1026.6hPa Calm     40% 0.00in /  0mm 0.0 W/m2
18:13 58.3 °F /  14.6 °C 34.7 °F /  1.5 °C 30.33in /  1027hPa Calm     41% 0.00in /  0mm 0.0 W/m2
18:19 57.7 °F /  14.3 °C 34.9 °F /  1.6 °C 30.33in /  1027hPa Calm     42% 0.00in /  0mm 0.0 W/m2
18:25 57.2 °F /  14 °C 34.3 °F /  1.3 °C 30.33in /  1027hPa Calm     42% 0.00in /  0mm 0.0 W/m2
18:31 56.7 °F /  13.7 °C 34.3 °F /  1.3 °C 30.33in /  1027hPa Calm     43% 0.00in /  0mm 0.0 W/m2
18:37 55.9 °F /  13.3 °C 33.8 °F /  1 °C 30.33in /  1027hPa Calm     43% 0.00in /  0mm 0.0 W/m2
18:44 55.6 °F /  13.1 °C 34.0 °F /  1.1 °C 30.33in /  1027hPa Calm   1.0mph /  1.6km/h 44% 0.00in /  0mm 0.0 W/m2
18:50 55.0 °F /  12.8 °C 34.2 °F /  1.2 °C 30.33in /  1027hPa ENE 0.9mph /  1.4km/h 1.0mph /  1.6km/h 45% 0.00in /  0mm 0.0 W/m2
18:56 54.7 °F /  12.6 °C 33.8 °F /  1 °C 30.33in /  1027hPa East 2.0mph /  3.2km/h 2.0mph /  3.2km/h 45% 0.00in /  0mm 0.0 W/m2
19:02 54.3 °F /  12.4 °C 34.0 °F /  1.1 °C 30.34in /  1027.3hPa Calm     46% 0.00in /  0mm 0.0 W/m2
19:08 54.1 °F /  12.3 °C 34.3 °F /  1.3 °C 30.34in /  1027.3hPa Calm     47% 0.00in /  0mm 0.0 W/m2
19:14 54.0 °F /  12.2 °C 34.2 °F /  1.2 °C 30.34in /  1027.3hPa Calm   1.0mph /  1.6km/h 47% 0.00in /  0mm 0.0 W/m2
19:20 53.8 °F /  12.1 °C 34.0 °F /  1.1 °C 30.34in /  1027.3hPa Calm     47% 0.00in /  0mm 0.0 W/m2
19:26 53.8 °F /  12.1 °C 34.0 °F /  1.1 °C 30.35in /  1027.7hPa Calm     47% 0.00in /  0mm 0.0 W/m2
19:32 53.8 °F /  12.1 °C 34.0 °F /  1.1 °C 30.35in /  1027.7hPa ENE 0.9mph /  1.4km/h 2.0mph /  3.2km/h 47% 0.00in /  0mm 0.0 W/m2
19:39 53.6 °F /  12 °C 33.8 °F /  1 °C 30.35in /  1027.7hPa Calm   2.0mph /  3.2km/h 47% 0.00in /  0mm 0.0 W/m2
19:45 53.4 °F /  11.9 °C 33.6 °F /  0.9 °C 30.36in /  1028hPa Calm   1.0mph /  1.6km/h 47% 0.00in /  0mm 0.0 W/m2
19:51 53.2 °F /  11.8 °C 33.4 °F /  0.8 °C 30.36in /  1028hPa Calm   1.0mph /  1.6km/h 47% 0.00in /  0mm 0.0 W/m2
19:57 53.1 °F /  11.7 °C 33.4 °F /  0.8 °C 30.36in /  1028hPa Calm     47% 0.00in /  0mm 0.0 W/m2
20:03 52.9 °F /  11.6 °C 33.8 °F /  1 °C 30.36in /  1028hPa Calm     48% 0.00in /  0mm 0.0 W/m2
20:09 52.5 °F /  11.4 °C 33.4 °F /  0.8 °C 30.36in /  1028hPa Calm     48% 0.00in /  0mm 0.0 W/m2
20:16 52.3 °F /  11.3 °C 33.8 °F /  1 °C 30.36in /  1028hPa Calm     49% 0.00in /  0mm 0.0 W/m2
20:22 52.2 °F /  11.2 °C 33.6 °F /  0.9 °C 30.36in /  1028hPa Calm   1.0mph /  1.6km/h 49% 0.00in /  0mm 0.0 W/m2
20:28 51.8 °F /  11 °C 33.8 °F /  1 °C 30.36in /  1028hPa Calm   1.0mph /  1.6km/h 50% 0.00in /  0mm 0.0 W/m2
20:34 51.6 °F /  10.9 °C 33.6 °F /  0.9 °C 30.36in /  1028hPa Calm     50% 0.00in /  0mm 0.0 W/m2
20:40 51.6 °F /  10.9 °C 33.6 °F /  0.9 °C 30.36in /  1028hPa Calm   1.0mph /  1.6km/h 50% 0.00in /  0mm 0.0 W/m2
20:47 51.4 °F /  10.8 °C 33.4 °F /  0.8 °C 30.36in /  1028hPa Calm   1.0mph /  1.6km/h 50% 0.00in /  0mm 0.0 W/m2
20:52 51.4 °F /  10.8 °C 33.4 °F /  0.8 °C 30.36in /  1028hPa Calm   1.0mph /  1.6km/h 50% 0.00in /  0mm 0.0 W/m2
20:59 51.3 °F /  10.7 °C 33.3 °F /  0.7 °C 30.36in /  1028hPa Calm   1.0mph /  1.6km/h 50% 0.00in /  0mm 0.0 W/m2
21:05 51.3 °F /  10.7 °C 33.8 °F /  1 °C 30.36in /  1028hPa ENE 0.9mph /  1.4km/h 3.0mph /  4.8km/h 51% 0.00in /  0mm 0.0 W/m2
21:17 51.1 °F /  10.6 °C 33.6 °F /  0.9 °C 30.36in /  1028hPa Calm   3.0mph /  4.8km/h 51% 0.00in /  0mm 0.0 W/m2
21:23 51.1 °F /  10.6 °C 33.6 °F /  0.9 °C 30.36in /  1028hPa East 0.9mph /  1.4km/h 2.0mph /  3.2km/h 51% 0.00in /  0mm 0.0 W/m2
21:29 50.7 °F /  10.4 °C 33.8 °F /  1 °C 30.36in /  1028hPa Calm   2.0mph /  3.2km/h 52% 0.00in /  0mm 0.0 W/m2
21:35 50.7 °F /  10.4 °C 33.8 °F /  1 °C 30.37in /  1028.3hPa Calm     52% 0.00in /  0mm 0.0 W/m2
21:41 50.4 °F /  10.2 °C 33.4 °F /  0.8 °C 30.37in /  1028.3hPa Calm     52% 0.00in /  0mm 0.0 W/m2
21:47 50.4 °F /  10.2 °C 33.8 °F /  1 °C 30.37in /  1028.3hPa Calm     53% 0.00in /  0mm 0.0 W/m2
21:54 50.2 °F /  10.1 °C 33.6 °F /  0.9 °C 30.37in /  1028.3hPa Calm     53% 0.00in /  0mm 0.0 W/m2
22:00 49.8 °F /  9.9 °C 33.4 °F /  0.8 °C 30.37in /  1028.3hPa Calm     53% 0.00in /  0mm 0.0 W/m2
22:06 49.8 °F /  9.9 °C 33.8 °F /  1 °C 30.37in /  1028.3hPa Calm     54% 0.00in /  0mm 0.0 W/m2
22:12 49.6 °F /  9.8 °C 33.6 °F /  0.9 °C 30.36in /  1028hPa Calm   2.0mph /  3.2km/h 54% 0.00in /  0mm 0.0 W/m2
22:18 49.5 °F /  9.7 °C 33.4 °F /  0.8 °C 30.37in /  1028.3hPa Calm     54% 0.00in /  0mm 0.0 W/m2
22:24 49.3 °F /  9.6 °C 33.3 °F /  0.7 °C 30.37in /  1028.3hPa Calm     54% 0.00in /  0mm 0.0 W/m2
22:30 48.9 °F /  9.4 °C 33.4 °F /  0.8 °C 30.37in /  1028.3hPa Calm     55% 0.00in /  0mm 0.0 W/m2
22:37 48.7 °F /  9.3 °C 33.3 °F /  0.7 °C 30.37in /  1028.3hPa Calm     55% 0.00in /  0mm 0.0 W/m2
22:43 48.6 °F /  9.2 °C 33.6 °F /  0.9 °C 30.37in /  1028.3hPa Calm     56% 0.00in /  0mm 0.0 W/m2
22:49 48.0 °F /  8.9 °C 33.1 °F /  0.6 °C 30.36in /  1028hPa Calm   1.0mph /  1.6km/h 56% 0.00in /  0mm 0.0 W/m2
22:55 47.8 °F /  8.8 °C 33.3 °F /  0.7 °C 30.36in /  1028hPa Calm     57% 0.00in /  0mm 0.0 W/m2
23:01 47.8 °F /  8.8 °C 33.3 °F /  0.7 °C 30.36in /  1028hPa Calm     57% 0.00in /  0mm 0.0 W/m2
23:07 47.7 °F /  8.7 °C 33.6 °F /  0.9 °C 30.36in /  1028hPa Calm     58% 0.00in /  0mm 0.0 W/m2
23:13 47.5 °F /  8.6 °C 33.1 °F /  0.6 °C 30.36in /  1028hPa Calm     57% 0.00in /  0mm 0.0 W/m2
23:19 47.1 °F /  8.4 °C 33.1 °F /  0.6 °C 30.36in /  1028hPa Calm     58% 0.00in /  0mm 0.0 W/m2
23:25 46.9 °F /  8.3 °C 33.4 °F /  0.8 °C 30.36in /  1028hPa Calm     59% 0.00in /  0mm 0.0 W/m2
23:31 46.8 °F /  8.2 °C 33.3 °F /  0.7 °C 30.36in /  1028hPa Calm     59% 0.00in /  0mm 0.0 W/m2
23:37 46.6 °F /  8.1 °C 33.4 °F /  0.8 °C 30.36in /  1028hPa Calm     60% 0.00in /  0mm 0.0 W/m2
23:43 46.2 °F /  7.9 °C 33.1 °F /  0.6 °C 30.36in /  1028hPa Calm     60% 0.00in /  0mm 0.0 W/m2
23:49 46.2 °F /  7.9 °C 33.1 °F /  0.6 °C 30.36in /  1028hPa Calm     60% 0.00in /  0mm 0.0 W/m2
23:55 46.2 °F /  7.9 °C 33.1 °F /  0.6 °C 30.36in /  1028hPa Calm     60% 0.00in /  0mm 0.0 W/m2
Olympia, Windhoek, Namibia
Compliments of Weather Underground - 3 mb